»·PEaware :: ASA766 KSEA-KSFO

ASA766 :: KSEA-KSFO

FLIGHT INFORMATION

Flight Status: Arrived
Operator:
Alaska Airlines
More flights by this operator :: More flights under this callsign
Pilot: Michael F. (26726)
Aircraft: BOEING 737-800
(B738)
More flights by this aircraft type
Origin: KSEA Seattle-Tacoma Intl
United States
Destination: KSFO San Francisco Intl
United States
More flights between these airports :: More routes between these airports
Route: +HAROB6 FEPOT Q3 FOWND MLBEC BDEGA3
File this flight plan on PilotEdge
Remarks: RMK / SIMBRIEF
Altitude:
(Current/Filed)
37,000ft
Speed:
(Current/Filed)
459kts
Departed: 17-Oct-20 12:27 PM
Arrived: 17-Oct-20 01:59 PM
Distance/Time
Traveled:
590nm/1:32
Distance/Time
To Go:
Arrived

Flight Plot

Page will automatically refresh every two minutes.

Flight plan parsing failed; only flown route is shown


Map Options




Map Legend


Flown Route
Filed Route
Departure Airport
Arrival Airport
Navaid (VOR, NDB)
Fix

Horizontal Profiles

Position Reports

Time Latitude Longitude Heading Altitude Ground
Speed
17-Oct-20 12:08 47.447701 -122.303487 246 442ft 0kts
17-Oct-20 12:09 47.447701 -122.303487 246 442ft 0kts
17-Oct-20 12:10 47.447701 -122.303487 246 442ft 0kts
17-Oct-20 12:11 47.447701 -122.303487 246 442ft 0kts
17-Oct-20 12:12 47.447701 -122.303487 246 442ft 0kts
17-Oct-20 12:13 47.447701 -122.303487 246 442ft 0kts
17-Oct-20 12:14 47.447701 -122.303487 246 442ft 0kts
17-Oct-20 12:15 47.447700 -122.303490 246 442ft 0kts
17-Oct-20 12:16 47.447700 -122.303492 246 442ft 0kts
17-Oct-20 12:16 47.447656 -122.303713 259 442ft 4kts
17-Oct-20 12:18 47.447650 -122.304524 270 442ft 0kts
17-Oct-20 12:18 47.447650 -122.304526 270 442ft 0kts
17-Oct-20 12:20 47.447743 -122.306060 305 442ft 6kts
17-Oct-20 12:20 47.450223 -122.306281 0 442ft 16kts
17-Oct-20 12:21 47.453730 -122.306240 0 442ft 12kts
17-Oct-20 12:22 47.458118 -122.306228 359 442ft 18kts
17-Oct-20 12:23 47.462033 -122.306172 0 442ft 10kts
17-Oct-20 12:24 47.463443 -122.306210 345 442ft 0kts
17-Oct-20 12:25 47.463695 -122.306542 299 442ft 6kts
17-Oct-20 12:26 47.457956 -122.307837 181 442ft 89kts
17-Oct-20 12:27 47.414629 -122.308332 183 2616ft 185kts
17-Oct-20 12:28 47.353641 -122.310088 185 5121ft 250kts
17-Oct-20 12:29 47.313142 -122.385162 263 8415ft 262kts
17-Oct-20 12:30 47.307718 -122.494264 279 10704ft 266kts
17-Oct-20 12:31 47.311612 -122.607150 279 11980ft 302kts
17-Oct-20 12:32 47.314480 -122.734941 279 13345ft 319kts
17-Oct-20 12:33 47.288854 -122.865967 258 16330ft 345kts
17-Oct-20 12:34 47.253331 -123.000440 259 19035ft 357kts
17-Oct-20 12:35 47.180778 -123.109111 227 21541ft 402kts
17-Oct-20 12:36 47.087630 -123.204248 216 23748ft 421kts
17-Oct-20 12:37 46.963936 -123.214337 188 25364ft 470kts
17-Oct-20 12:38 46.831112 -123.209371 188 26831ft 481kts
17-Oct-20 12:39 46.695951 -123.204620 188 28119ft 490kts
17-Oct-20 12:40 46.558275 -123.199846 187 29269ft 497kts
17-Oct-20 12:41 46.419113 -123.195073 187 30202ft 503kts
17-Oct-20 12:42 46.278269 -123.190290 187 30943ft 508kts
17-Oct-20 12:43 46.136330 -123.185521 187 31532ft 513kts
17-Oct-20 12:44 45.993304 -123.180719 187 32208ft 512kts
17-Oct-20 12:45 45.851515 -123.175952 186 32973ft 509kts
17-Oct-20 12:46 45.709778 -123.171338 186 33613ft 509kts
17-Oct-20 12:47 45.568300 -123.166771 186 34225ft 509kts
17-Oct-20 12:48 45.427054 -123.162224 186 34867ft 507kts
17-Oct-20 12:49 45.286085 -123.157708 186 35515ft 504kts
17-Oct-20 12:50 45.146275 -123.153254 186 36131ft 501kts
17-Oct-20 12:51 45.006828 -123.148839 186 36698ft 499kts
17-Oct-20 12:52 44.868387 -123.144478 186 37238ft 496kts
17-Oct-20 12:53 44.730225 -123.140172 186 37252ft 495kts
17-Oct-20 12:54 44.593103 -123.135922 186 37256ft 490kts
17-Oct-20 12:55 44.456573 -123.131563 185 37255ft 488kts
17-Oct-20 12:56 44.321013 -123.126661 185 37255ft 486kts
17-Oct-20 12:57 44.185820 -123.121851 185 37251ft 485kts
17-Oct-20 12:58 44.050824 -123.117072 185 37249ft 484kts
17-Oct-20 12:59 43.916259 -123.112317 185 37247ft 483kts
17-Oct-20 13:00 43.782199 -123.107617 185 37244ft 482kts
17-Oct-20 13:01 43.648223 -123.102937 184 37240ft 481kts
17-Oct-20 13:02 43.514457 -123.098284 184 37235ft 480kts
17-Oct-20 13:03 43.380824 -123.093659 184 37232ft 480kts
17-Oct-20 13:04 43.247501 -123.089063 184 37231ft 479kts
17-Oct-20 13:05 43.113929 -123.084479 184 37233ft 479kts
17-Oct-20 13:06 42.980860 -123.079932 184 37232ft 479kts
17-Oct-20 13:07 42.847600 -123.075398 184 37233ft 478kts
17-Oct-20 13:08 42.714484 -123.070887 183 37236ft 478kts
17-Oct-20 13:09 42.581425 -123.066399 183 37231ft 477kts
17-Oct-20 13:10 42.448532 -123.061957 183 37207ft 477kts
17-Oct-20 13:11 42.315751 -123.057672 183 37190ft 477kts
17-Oct-20 13:12 42.183345 -123.053408 183 37190ft 477kts
17-Oct-20 13:13 42.050731 -123.049152 183 37192ft 476kts
17-Oct-20 13:14 41.918312 -123.044910 182 37192ft 475kts
17-Oct-20 13:15 41.786358 -123.040714 182 37190ft 474kts
17-Oct-20 13:16 41.738149 -123.039184 182 37192ft 473kts
17-Oct-20 13:17 41.606606 -123.035021 182 37191ft 473kts
17-Oct-20 13:18 41.474882 -123.030871 182 37188ft 473kts
17-Oct-20 13:19 41.343319 -123.026742 181 37174ft 473kts
17-Oct-20 13:20 41.211471 -123.022739 181 37129ft 473kts
17-Oct-20 13:21 41.079978 -123.018773 181 37113ft 473kts
17-Oct-20 13:22 40.948308 -123.014815 181 37097ft 472kts
17-Oct-20 13:23 40.817329 -123.010894 181 37081ft 472kts
17-Oct-20 13:24 40.685976 -123.006977 181 37066ft 471kts
17-Oct-20 13:25 40.554784 -123.003080 180 37053ft 470kts
17-Oct-20 13:26 40.423667 -122.999201 180 37001ft 471kts
17-Oct-20 13:27 40.292975 -122.995351 180 36993ft 470kts
17-Oct-20 13:28 40.162166 -122.991512 180 36992ft 470kts
17-Oct-20 13:29 40.031680 -122.987698 180 37001ft 469kts
17-Oct-20 13:30 39.901237 -122.983890 179 37000ft 468kts
17-Oct-20 13:31 39.770914 -122.980109 179 36998ft 467kts
17-Oct-20 13:32 39.641414 -122.976364 179 36996ft 466kts
17-Oct-20 13:33 39.511832 -122.972632 179 36994ft 465kts
17-Oct-20 13:34 39.382184 -122.968911 179 36993ft 465kts
17-Oct-20 13:35 39.252540 -122.965259 179 36216ft 465kts
17-Oct-20 13:36 39.122511 -122.961642 178 33973ft 469kts
17-Oct-20 13:37 38.991541 -122.958967 179 31718ft 472kts
17-Oct-20 13:38 38.859818 -122.950592 168 29445ft 478kts
17-Oct-20 13:39 38.730894 -122.914332 168 27148ft 465kts
17-Oct-20 13:40 38.608510 -122.878518 168 24985ft 440kts
17-Oct-20 13:41 38.492040 -122.844449 168 23067ft 417kts
17-Oct-20 13:42 38.381448 -122.812132 169 21373ft 396kts
17-Oct-20 13:43 38.276678 -122.781632 169 19766ft 379kts
17-Oct-20 13:44 38.174528 -122.752012 169 18504ft 374kts
17-Oct-20 13:45 38.073850 -122.722911 169 17578ft 368kts
17-Oct-20 13:46 37.974439 -122.694226 169 16649ft 363kts
17-Oct-20 13:47 37.883343 -122.649854 144 15209ft 354kts
17-Oct-20 13:48 37.804620 -122.571794 141 12522ft 359kts
17-Oct-20 13:49 37.730849 -122.494291 140 10852ft 331kts
17-Oct-20 13:51 37.685621 -122.405356 120 8870ft 285kts
17-Oct-20 13:52 37.648719 -122.321007 120 7007ft 255kts
17-Oct-20 13:53 37.615753 -122.245317 120 5993ft 234kts
17-Oct-20 13:54 37.581070 -122.177837 154 6083ft 233kts
17-Oct-20 13:55 37.538516 -122.213741 293 4715ft 229kts
17-Oct-20 13:56 37.574453 -122.268443 303 2371ft 183kts
17-Oct-20 13:57 37.596715 -122.321467 304 648ft 172kts
17-Oct-20 13:58 37.615412 -122.366822 294 22ft 102kts
17-Oct-20 13:59 37.618929 -122.377256 272 22ft 11kts
17-Oct-20 14:00 37.617852 -122.379551 172 22ft 10kts
17-Oct-20 14:01 37.616159 -122.379953 205 22ft 10kts
17-Oct-20 14:02 37.616321 -122.381790 345 22ft 4kts
17-Oct-20 14:03 37.616763 -122.381656 22 22ft 1kts
17-Oct-20 14:04 37.616769 -122.381653 22 22ft 0kts
17-Oct-20 14:04 37.616769 -122.381653 22 22ft 0kts
17-Oct-20 14:06 37.616769 -122.381653 22 22ft 0kts
17-Oct-20 14:06 37.616769 -122.381653 22 22ft 0kts
17-Oct-20 14:08 37.616769 -122.381653 22 22ft 0kts
17-Oct-20 14:08 37.616769 -122.381653 22 22ft 0kts
17-Oct-20 14:10 37.616769 -122.381653 22 22ft 0kts
17-Oct-20 14:10 37.616769 -122.381653 22 22ft 0kts
17-Oct-20 14:11 37.616769 -122.381653 22 22ft 0kts
17-Oct-20 14:12 37.616769 -122.381653 22 22ft 0kts

Navigation Log

Ident Type
Flight plan parsing failed, navigation log unavailable